sensor_id;sensor_type;location;lat;lon;timestamp;P1;durP1;ratioP1;P2;durP2;ratioP2
5939;SDS011;2995;-31.998;115.906;2023-08-06T00:00:39;6.30;;;4.38;;
5939;SDS011;2995;-31.998;115.906;2023-08-06T00:03:13;13.48;;;5.85;;
5939;SDS011;2995;-31.998;115.906;2023-08-06T00:05:44;5.53;;;4.43;;
5939;SDS011;2995;-31.998;115.906;2023-08-06T00:08:15;6.20;;;4.30;;
5939;SDS011;2995;-31.998;115.906;2023-08-06T00:10:47;7.67;;;4.73;;
5939;SDS011;2995;-31.998;115.906;2023-08-06T00:13:19;5.10;;;4.67;;
5939;SDS011;2995;-31.998;115.906;2023-08-06T00:15:50;6.70;;;3.63;;
5939;SDS011;2995;-31.998;115.906;2023-08-06T00:18:24;5.83;;;3.80;;
5939;SDS011;2995;-31.998;115.906;2023-08-06T00:20:55;6.80;;;4.13;;
5939;SDS011;2995;-31.998;115.906;2023-08-06T00:23:26;4.77;;;4.40;;
5939;SDS011;2995;-31.998;115.906;2023-08-06T00:25:57;4.40;;;4.00;;
5939;SDS011;2995;-31.998;115.906;2023-08-06T00:28:28;6.80;;;4.70;;
5939;SDS011;2995;-31.998;115.906;2023-08-06T00:30:59;5.77;;;4.50;;
5939;SDS011;2995;-31.998;115.906;2023-08-06T00:33:33;6.90;;;5.20;;
5939;SDS011;2995;-31.998;115.906;2023-08-06T00:36:04;5.53;;;4.20;;
5939;SDS011;2995;-31.998;115.906;2023-08-06T00:38:35;7.97;;;4.60;;
5939;SDS011;2995;-31.998;115.906;2023-08-06T00:41:06;6.97;;;3.73;;
5939;SDS011;2995;-31.998;115.906;2023-08-06T00:43:38;4.43;;;4.03;;
5939;SDS011;2995;-31.998;115.906;2023-08-06T00:46:09;4.00;;;3.63;;
5939;SDS011;2995;-31.998;115.906;2023-08-06T00:48:42;9.10;;;3.73;;
5939;SDS011;2995;-31.998;115.906;2023-08-06T00:51:14;8.30;;;4.67;;
5939;SDS011;2995;-31.998;115.906;2023-08-06T00:53:45;4.50;;;3.80;;
5939;SDS011;2995;-31.998;115.906;2023-08-06T00:56:18;4.10;;;3.70;;
5939;SDS011;2995;-31.998;115.906;2023-08-06T00:58:50;5.50;;;4.23;;
5939;SDS011;2995;-31.998;115.906;2023-08-06T01:01:21;4.10;;;3.70;;
5939;SDS011;2995;-31.998;115.906;2023-08-06T01:03:55;5.07;;;4.40;;
5939;SDS011;2995;-31.998;115.906;2023-08-06T01:06:29;5.33;;;4.30;;
5939;SDS011;2995;-31.998;115.906;2023-08-06T01:09:09;4.90;;;4.27;;
5939;SDS011;2995;-31.998;115.906;2023-08-06T01:11:49;5.50;;;5.00;;
5939;SDS011;2995;-31.998;115.906;2023-08-06T01:14:30;6.47;;;3.97;;
5939;SDS011;2995;-31.998;115.906;2023-08-06T01:17:06;11.10;;;5.27;;
5939;SDS011;2995;-31.998;115.906;2023-08-06T01:19:41;3.53;;;3.20;;
5939;SDS011;2995;-31.998;115.906;2023-08-06T01:22:14;4.20;;;3.33;;
5939;SDS011;2995;-31.998;115.906;2023-08-06T01:24:46;5.23;;;3.80;;
5939;SDS011;2995;-31.998;115.906;2023-08-06T01:27:21;5.93;;;3.17;;
5939;SDS011;2995;-31.998;115.906;2023-08-06T01:29:59;3.17;;;2.87;;
5939;SDS011;2995;-31.998;115.906;2023-08-06T01:32:36;4.00;;;2.17;;
5939;SDS011;2995;-31.998;115.906;2023-08-06T01:35:12;4.20;;;2.70;;
5939;SDS011;2995;-31.998;115.906;2023-08-06T01:37:47;2.50;;;2.20;;
5939;SDS011;2995;-31.998;115.906;2023-08-06T01:40:19;3.07;;;2.40;;
5939;SDS011;2995;-31.998;115.906;2023-08-06T01:42:51;2.30;;;2.10;;
5939;SDS011;2995;-31.998;115.906;2023-08-06T01:45:23;2.70;;;1.87;;
5939;SDS011;2995;-31.998;115.906;2023-08-06T01:47:54;2.83;;;1.77;;
5939;SDS011;2995;-31.998;115.906;2023-08-06T01:50:25;7.53;;;2.00;;
5939;SDS011;2995;-31.998;115.906;2023-08-06T01:52:58;4.77;;;1.60;;
5939;SDS011;2995;-31.998;115.906;2023-08-06T01:55:30;1.63;;;1.43;;
5939;SDS011;2995;-31.998;115.906;2023-08-06T01:58:01;2.40;;;1.50;;
5939;SDS011;2995;-31.998;115.906;2023-08-06T02:00:32;5.93;;;1.43;;
5939;SDS011;2995;-31.998;115.906;2023-08-06T02:03:03;2.57;;;1.60;;
5939;SDS011;2995;-31.998;115.906;2023-08-06T02:05:34;5.07;;;1.53;;
5939;SDS011;2995;-31.998;115.906;2023-08-06T02:08:08;1.43;;;1.20;;
5939;SDS011;2995;-31.998;115.906;2023-08-06T02:10:39;1.60;;;1.20;;
5939;SDS011;2995;-31.998;115.906;2023-08-06T02:13:10;1.70;;;1.20;;
5939;SDS011;2995;-31.998;115.906;2023-08-06T02:15:44;1.30;;;1.00;;
5939;SDS011;2995;-31.998;115.906;2023-08-06T02:18:16;3.70;;;1.47;;
5939;SDS011;2995;-31.998;115.906;2023-08-06T02:20:55;1.20;;;1.10;;
5939;SDS011;2995;-31.998;115.906;2023-08-06T02:23:28;1.87;;;1.30;;
5939;SDS011;2995;-31.998;115.906;2023-08-06T02:26:00;1.20;;;1.03;;
5939;SDS011;2995;-31.998;115.906;2023-08-06T02:28:32;4.73;;;1.33;;
5939;SDS011;2995;-31.998;115.906;2023-08-06T02:31:03;1.10;;;1.00;;
5939;SDS011;2995;-31.998;115.906;2023-08-06T02:33:35;1.30;;;1.00;;
5939;SDS011;2995;-31.998;115.906;2023-08-06T02:36:09;2.20;;;1.23;;
5939;SDS011;2995;-31.998;115.906;2023-08-06T02:38:42;2.30;;;1.13;;
5939;SDS011;2995;-31.998;115.906;2023-08-06T02:41:14;1.97;;;0.93;;
5939;SDS011;2995;-31.998;115.906;2023-08-06T02:43:46;1.40;;;1.10;;
5939;SDS011;2995;-31.998;115.906;2023-08-06T02:46:17;1.03;;;0.80;;
5939;SDS011;2995;-31.998;115.906;2023-08-06T02:48:49;0.93;;;0.80;;
5939;SDS011;2995;-31.998;115.906;2023-08-06T02:51:20;1.90;;;0.97;;
5939;SDS011;2995;-31.998;115.906;2023-08-06T02:53:53;3.13;;;0.90;;
5939;SDS011;2995;-31.998;115.906;2023-08-06T02:56:24;1.87;;;0.93;;
5939;SDS011;2995;-31.998;115.906;2023-08-06T02:58:56;1.67;;;1.20;;
5939;SDS011;2995;-31.998;115.906;2023-08-06T03:01:27;2.13;;;1.07;;
5939;SDS011;2995;-31.998;115.906;2023-08-06T03:03:58;1.23;;;0.90;;
5939;SDS011;2995;-31.998;115.906;2023-08-06T03:06:30;2.30;;;1.10;;
5939;SDS011;2995;-31.998;115.906;2023-08-06T03:09:03;1.63;;;0.80;;
5939;SDS011;2995;-31.998;115.906;2023-08-06T03:11:34;1.57;;;0.90;;
5939;SDS011;2995;-31.998;115.906;2023-08-06T03:14:05;1.33;;;0.90;;
5939;SDS011;2995;-31.998;115.906;2023-08-06T03:16:37;1.50;;;1.10;;
5939;SDS011;2995;-31.998;115.906;2023-08-06T03:19:08;3.80;;;1.40;;
5939;SDS011;2995;-31.998;115.906;2023-08-06T03:21:39;1.90;;;1.13;;
5939;SDS011;2995;-31.998;115.906;2023-08-06T03:24:12;1.10;;;0.93;;
5939;SDS011;2995;-31.998;115.906;2023-08-06T03:26:44;1.00;;;0.90;;
5939;SDS011;2995;-31.998;115.906;2023-08-06T03:29:15;1.57;;;1.07;;
5939;SDS011;2995;-31.998;115.906;2023-08-06T03:31:47;3.67;;;1.00;;
5939;SDS011;2995;-31.998;115.906;2023-08-06T03:34:18;1.87;;;1.03;;
5939;SDS011;2995;-31.998;115.906;2023-08-06T03:36:50;1.83;;;1.10;;
5939;SDS011;2995;-31.998;115.906;2023-08-06T03:39:23;1.50;;;1.03;;
5939;SDS011;2995;-31.998;115.906;2023-08-06T03:41:54;2.40;;;0.93;;
5939;SDS011;2995;-31.998;115.906;2023-08-06T03:44:25;1.13;;;0.93;;
5939;SDS011;2995;-31.998;115.906;2023-08-06T03:46:57;1.97;;;1.20;;
5939;SDS011;2995;-31.998;115.906;2023-08-06T03:49:28;1.07;;;0.93;;
5939;SDS011;2995;-31.998;115.906;2023-08-06T03:51:59;1.60;;;0.90;;
5939;SDS011;2995;-31.998;115.906;2023-08-06T03:54:32;1.40;;;1.07;;
5939;SDS011;2995;-31.998;115.906;2023-08-06T03:57:04;1.03;;;0.80;;
5939;SDS011;2995;-31.998;115.906;2023-08-06T03:59:35;2.37;;;1.47;;
5939;SDS011;2995;-31.998;115.906;2023-08-06T04:02:07;1.67;;;1.00;;
5939;SDS011;2995;-31.998;115.906;2023-08-06T04:04:38;3.20;;;1.57;;
5939;SDS011;2995;-31.998;115.906;2023-08-06T04:07:09;0.90;;;0.70;;
5939;SDS011;2995;-31.998;115.906;2023-08-06T04:09:53;1.50;;;1.00;;
5939;SDS011;2995;-31.998;115.906;2023-08-06T04:12:26;1.87;;;0.90;;
5939;SDS011;2995;-31.998;115.906;2023-08-06T04:14:58;1.10;;;0.90;;
5939;SDS011;2995;-31.998;115.906;2023-08-06T04:17:30;1.00;;;0.80;;
5939;SDS011;2995;-31.998;115.906;2023-08-06T04:20:01;1.70;;;1.10;;
5939;SDS011;2995;-31.998;115.906;2023-08-06T04:22:32;1.90;;;1.10;;
5939;SDS011;2995;-31.998;115.906;2023-08-06T04:25:06;1.33;;;0.70;;
5939;SDS011;2995;-31.998;115.906;2023-08-06T04:27:37;1.37;;;0.87;;
5939;SDS011;2995;-31.998;115.906;2023-08-06T04:30:10;1.13;;;0.87;;
5939;SDS011;2995;-31.998;115.906;2023-08-06T04:32:41;1.30;;;1.00;;
5939;SDS011;2995;-31.998;115.906;2023-08-06T04:35:12;2.30;;;1.20;;
5939;SDS011;2995;-31.998;115.906;2023-08-06T04:37:43;1.70;;;1.10;;
5939;SDS011;2995;-31.998;115.906;2023-08-06T04:40:17;2.60;;;1.00;;
5939;SDS011;2995;-31.998;115.906;2023-08-06T04:42:48;1.00;;;0.80;;
5939;SDS011;2995;-31.998;115.906;2023-08-06T04:45:20;1.67;;;1.10;;
5939;SDS011;2995;-31.998;115.906;2023-08-06T04:47:52;1.90;;;1.00;;
5939;SDS011;2995;-31.998;115.906;2023-08-06T04:50:23;4.13;;;1.20;;
5939;SDS011;2995;-31.998;115.906;2023-08-06T04:52:54;1.80;;;1.07;;
5939;SDS011;2995;-31.998;115.906;2023-08-06T04:55:28;3.47;;;0.97;;
5939;SDS011;2995;-31.998;115.906;2023-08-06T04:57:59;2.03;;;1.10;;
5939;SDS011;2995;-31.998;115.906;2023-08-06T05:00:30;1.60;;;1.30;;
5939;SDS011;2995;-31.998;115.906;2023-08-06T05:03:02;2.47;;;1.20;;
5939;SDS011;2995;-31.998;115.906;2023-08-06T05:05:34;2.23;;;0.93;;
5939;SDS011;2995;-31.998;115.906;2023-08-06T05:08:05;1.60;;;1.10;;
5939;SDS011;2995;-31.998;115.906;2023-08-06T05:10:38;1.67;;;1.20;;
5939;SDS011;2995;-31.998;115.906;2023-08-06T05:13:13;1.63;;;0.90;;
5939;SDS011;2995;-31.998;115.906;2023-08-06T05:15:44;1.90;;;0.93;;
5939;SDS011;2995;-31.998;115.906;2023-08-06T05:18:15;1.27;;;0.93;;
5939;SDS011;2995;-31.998;115.906;2023-08-06T05:20:46;1.83;;;1.03;;
5939;SDS011;2995;-31.998;115.906;2023-08-06T05:23:18;2.00;;;1.03;;
5939;SDS011;2995;-31.998;115.906;2023-08-06T05:25:51;1.00;;;0.90;;
5939;SDS011;2995;-31.998;115.906;2023-08-06T05:28:22;1.70;;;1.00;;
5939;SDS011;2995;-31.998;115.906;2023-08-06T05:30:54;1.40;;;1.20;;
5939;SDS011;2995;-31.998;115.906;2023-08-06T05:33:25;2.60;;;1.27;;
5939;SDS011;2995;-31.998;115.906;2023-08-06T05:35:56;3.27;;;1.37;;
5939;SDS011;2995;-31.998;115.906;2023-08-06T05:38:29;1.97;;;1.00;;
5939;SDS011;2995;-31.998;115.906;2023-08-06T05:41:02;3.13;;;1.10;;
5939;SDS011;2995;-31.998;115.906;2023-08-06T05:43:33;1.53;;;1.07;;
5939;SDS011;2995;-31.998;115.906;2023-08-06T05:46:04;1.17;;;0.83;;
5939;SDS011;2995;-31.998;115.906;2023-08-06T05:48:36;2.10;;;1.30;;
5939;SDS011;2995;-31.998;115.906;2023-08-06T05:51:07;1.20;;;0.83;;
5939;SDS011;2995;-31.998;115.906;2023-08-06T05:53:39;1.10;;;0.90;;
5939;SDS011;2995;-31.998;115.906;2023-08-06T05:56:14;1.60;;;1.00;;
5939;SDS011;2995;-31.998;115.906;2023-08-06T05:58:45;1.50;;;1.13;;
5939;SDS011;2995;-31.998;115.906;2023-08-06T06:01:19;3.67;;;1.30;;
5939;SDS011;2995;-31.998;115.906;2023-08-06T06:03:50;1.40;;;1.10;;
5939;SDS011;2995;-31.998;115.906;2023-08-06T06:06:21;1.43;;;0.90;;
5939;SDS011;2995;-31.998;115.906;2023-08-06T06:08:53;1.17;;;1.00;;
5939;SDS011;2995;-31.998;115.906;2023-08-06T06:11:26;2.80;;;1.10;;
5939;SDS011;2995;-31.998;115.906;2023-08-06T06:13:57;1.27;;;1.10;;
5939;SDS011;2995;-31.998;115.906;2023-08-06T06:16:28;1.97;;;1.10;;
5939;SDS011;2995;-31.998;115.906;2023-08-06T06:19:00;1.90;;;1.20;;
5939;SDS011;2995;-31.998;115.906;2023-08-06T06:21:31;1.30;;;1.00;;
5939;SDS011;2995;-31.998;115.906;2023-08-06T06:24:02;1.30;;;1.00;;
5939;SDS011;2995;-31.998;115.906;2023-08-06T06:26:36;6.53;;;1.10;;
5939;SDS011;2995;-31.998;115.906;2023-08-06T06:29:07;2.50;;;1.10;;
5939;SDS011;2995;-31.998;115.906;2023-08-06T06:31:38;2.23;;;1.20;;
5939;SDS011;2995;-31.998;115.906;2023-08-06T06:34:10;1.60;;;1.30;;
5939;SDS011;2995;-31.998;115.906;2023-08-06T06:36:41;1.10;;;1.00;;
5939;SDS011;2995;-31.998;115.906;2023-08-06T06:39:12;2.47;;;1.03;;
5939;SDS011;2995;-31.998;115.906;2023-08-06T06:41:47;1.70;;;1.43;;
5939;SDS011;2995;-31.998;115.906;2023-08-06T06:44:18;1.57;;;1.00;;
5939;SDS011;2995;-31.998;115.906;2023-08-06T06:46:49;2.20;;;1.10;;
5939;SDS011;2995;-31.998;115.906;2023-08-06T06:49:20;1.83;;;1.00;;
5939;SDS011;2995;-31.998;115.906;2023-08-06T06:51:52;1.20;;;1.10;;
5939;SDS011;2995;-31.998;115.906;2023-08-06T06:54:23;1.63;;;1.10;;
5939;SDS011;2995;-31.998;115.906;2023-08-06T06:56:56;1.73;;;1.30;;
5939;SDS011;2995;-31.998;115.906;2023-08-06T06:59:28;1.53;;;1.30;;
5939;SDS011;2995;-31.998;115.906;2023-08-06T07:01:59;2.50;;;1.10;;
5939;SDS011;2995;-31.998;115.906;2023-08-06T07:04:30;4.40;;;1.10;;
5939;SDS011;2995;-31.998;115.906;2023-08-06T07:07:01;1.90;;;1.20;;
5939;SDS011;2995;-31.998;115.906;2023-08-06T07:09:33;1.37;;;1.10;;
5939;SDS011;2995;-31.998;115.906;2023-08-06T07:12:06;2.90;;;1.20;;
5939;SDS011;2995;-31.998;115.906;2023-08-06T07:14:38;1.40;;;1.10;;
5939;SDS011;2995;-31.998;115.906;2023-08-06T07:17:09;1.50;;;1.03;;
5939;SDS011;2995;-31.998;115.906;2023-08-06T07:19:40;1.20;;;1.00;;
5939;SDS011;2995;-31.998;115.906;2023-08-06T07:22:11;1.30;;;1.13;;
5939;SDS011;2995;-31.998;115.906;2023-08-06T07:24:43;1.97;;;1.10;;
5939;SDS011;2995;-31.998;115.906;2023-08-06T07:27:16;2.47;;;1.17;;
5939;SDS011;2995;-31.998;115.906;2023-08-06T07:29:47;1.80;;;1.30;;
5939;SDS011;2995;-31.998;115.906;2023-08-06T07:32:18;1.30;;;1.10;;
5939;SDS011;2995;-31.998;115.906;2023-08-06T07:34:50;1.30;;;1.20;;
5939;SDS011;2995;-31.998;115.906;2023-08-06T07:37:26;3.23;;;1.20;;
5939;SDS011;2995;-31.998;115.906;2023-08-06T07:39:57;1.87;;;1.47;;
5939;SDS011;2995;-31.998;115.906;2023-08-06T07:42:30;2.27;;;1.47;;
5939;SDS011;2995;-31.998;115.906;2023-08-06T07:45:01;2.43;;;1.30;;
5939;SDS011;2995;-31.998;115.906;2023-08-06T07:47:33;2.50;;;1.27;;
5939;SDS011;2995;-31.998;115.906;2023-08-06T07:50:04;1.37;;;1.27;;
5939;SDS011;2995;-31.998;115.906;2023-08-06T07:52:36;1.80;;;1.40;;
5939;SDS011;2995;-31.998;115.906;2023-08-06T07:55:07;1.40;;;1.30;;
5939;SDS011;2995;-31.998;115.906;2023-08-06T07:57:41;2.00;;;1.17;;
5939;SDS011;2995;-31.998;115.906;2023-08-06T08:00:12;1.60;;;1.50;;
5939;SDS011;2995;-31.998;115.906;2023-08-06T08:02:43;1.60;;;1.27;;
5939;SDS011;2995;-31.998;115.906;2023-08-06T08:05:14;2.27;;;1.10;;
5939;SDS011;2995;-31.998;115.906;2023-08-06T08:07:46;1.60;;;1.10;;
5939;SDS011;2995;-31.998;115.906;2023-08-06T08:10:17;1.50;;;1.30;;
5939;SDS011;2995;-31.998;115.906;2023-08-06T08:12:51;1.30;;;1.20;;
5939;SDS011;2995;-31.998;115.906;2023-08-06T08:15:23;1.70;;;1.10;;
5939;SDS011;2995;-31.998;115.906;2023-08-06T08:17:54;2.40;;;1.20;;
5939;SDS011;2995;-31.998;115.906;2023-08-06T08:20:26;1.47;;;1.10;;
5939;SDS011;2995;-31.998;115.906;2023-08-06T08:22:59;2.13;;;1.17;;
5939;SDS011;2995;-31.998;115.906;2023-08-06T08:25:30;1.90;;;1.30;;
5939;SDS011;2995;-31.998;115.906;2023-08-06T08:28:04;3.17;;;1.10;;
5939;SDS011;2995;-31.998;115.906;2023-08-06T08:30:36;1.30;;;1.10;;
5939;SDS011;2995;-31.998;115.906;2023-08-06T08:33:09;2.30;;;1.13;;
5939;SDS011;2995;-31.998;115.906;2023-08-06T08:35:40;2.57;;;1.20;;
5939;SDS011;2995;-31.998;115.906;2023-08-06T08:38:12;4.43;;;3.47;;
5939;SDS011;2995;-31.998;115.906;2023-08-06T08:40:46;2.87;;;2.10;;
5939;SDS011;2995;-31.998;115.906;2023-08-06T08:43:23;2.00;;;1.70;;
5939;SDS011;2995;-31.998;115.906;2023-08-06T08:45:55;1.90;;;1.70;;
5939;SDS011;2995;-31.998;115.906;2023-08-06T08:48:27;2.63;;;2.23;;
5939;SDS011;2995;-31.998;115.906;2023-08-06T08:50:58;3.57;;;1.67;;
5939;SDS011;2995;-31.998;115.906;2023-08-06T08:53:30;4.00;;;1.47;;
5939;SDS011;2995;-31.998;115.906;2023-08-06T08:56:04;2.17;;;1.40;;
5939;SDS011;2995;-31.998;115.906;2023-08-06T08:58:37;1.67;;;1.30;;
5939;SDS011;2995;-31.998;115.906;2023-08-06T09:01:09;3.30;;;1.20;;
5939;SDS011;2995;-31.998;115.906;2023-08-06T09:03:40;1.47;;;1.20;;
5939;SDS011;2995;-31.998;115.906;2023-08-06T09:06:12;3.10;;;1.47;;
5939;SDS011;2995;-31.998;115.906;2023-08-06T09:08:47;1.70;;;1.50;;
5939;SDS011;2995;-31.998;115.906;2023-08-06T09:11:20;3.37;;;2.20;;
5939;SDS011;2995;-31.998;115.906;2023-08-06T09:13:54;6.00;;;3.70;;
5939;SDS011;2995;-31.998;115.906;2023-08-06T09:16:29;4.40;;;3.13;;
5939;SDS011;2995;-31.998;115.906;2023-08-06T09:19:06;7.23;;;2.20;;
5939;SDS011;2995;-31.998;115.906;2023-08-06T09:21:38;4.00;;;2.07;;
5939;SDS011;2995;-31.998;115.906;2023-08-06T09:24:10;4.33;;;2.10;;
5939;SDS011;2995;-31.998;115.906;2023-08-06T09:26:42;2.87;;;1.93;;
5939;SDS011;2995;-31.998;115.906;2023-08-06T09:29:16;4.13;;;2.00;;
5939;SDS011;2995;-31.998;115.906;2023-08-06T09:31:47;3.23;;;2.03;;
5939;SDS011;2995;-31.998;115.906;2023-08-06T09:34:20;5.63;;;2.20;;
5939;SDS011;2995;-31.998;115.906;2023-08-06T09:36:52;8.17;;;2.33;;
5939;SDS011;2995;-31.998;115.906;2023-08-06T09:39:26;4.47;;;2.20;;
5939;SDS011;2995;-31.998;115.906;2023-08-06T09:41:58;4.43;;;2.47;;
5939;SDS011;2995;-31.998;115.906;2023-08-06T09:44:33;4.20;;;1.83;;
5939;SDS011;2995;-31.998;115.906;2023-08-06T09:47:05;3.80;;;1.90;;
5939;SDS011;2995;-31.998;115.906;2023-08-06T09:49:42;3.60;;;1.83;;
5939;SDS011;2995;-31.998;115.906;2023-08-06T09:52:14;3.77;;;2.00;;
5939;SDS011;2995;-31.998;115.906;2023-08-06T09:54:45;3.33;;;1.70;;
5939;SDS011;2995;-31.998;115.906;2023-08-06T09:57:18;8.90;;;2.03;;
5939;SDS011;2995;-31.998;115.906;2023-08-06T09:59:52;3.37;;;1.80;;
5939;SDS011;2995;-31.998;115.906;2023-08-06T10:02:23;3.33;;;1.93;;
5939;SDS011;2995;-31.998;115.906;2023-08-06T10:04:55;2.80;;;2.37;;
5939;SDS011;2995;-31.998;115.906;2023-08-06T10:07:29;4.13;;;2.00;;
5939;SDS011;2995;-31.998;115.906;2023-08-06T10:10:01;3.27;;;2.17;;
5939;SDS011;2995;-31.998;115.906;2023-08-06T10:12:34;4.67;;;2.83;;
5939;SDS011;2995;-31.998;115.906;2023-08-06T10:15:10;4.13;;;2.63;;
5939;SDS011;2995;-31.998;115.906;2023-08-06T10:17:43;4.53;;;2.20;;
5939;SDS011;2995;-31.998;115.906;2023-08-06T10:20:16;3.07;;;2.23;;
5939;SDS011;2995;-31.998;115.906;2023-08-06T10:22:59;5.17;;;2.30;;
5939;SDS011;2995;-31.998;115.906;2023-08-06T10:25:32;5.10;;;2.60;;
5939;SDS011;2995;-31.998;115.906;2023-08-06T10:28:07;3.07;;;1.80;;
5939;SDS011;2995;-31.998;115.906;2023-08-06T10:30:45;4.43;;;2.00;;
5939;SDS011;2995;-31.998;115.906;2023-08-06T10:33:18;6.53;;;2.97;;
5939;SDS011;2995;-31.998;115.906;2023-08-06T10:35:50;11.13;;;2.77;;
5939;SDS011;2995;-31.998;115.906;2023-08-06T10:38:33;6.43;;;2.50;;
5939;SDS011;2995;-31.998;115.906;2023-08-06T10:41:16;10.83;;;3.40;;
5939;SDS011;2995;-31.998;115.906;2023-08-06T10:43:52;6.93;;;2.73;;
5939;SDS011;2995;-31.998;115.906;2023-08-06T10:46:38;7.13;;;3.13;;
5939;SDS011;2995;-31.998;115.906;2023-08-06T10:49:09;3.23;;;2.73;;
5939;SDS011;2995;-31.998;115.906;2023-08-06T10:51:43;9.10;;;3.40;;
5939;SDS011;2995;-31.998;115.906;2023-08-06T10:54:15;6.23;;;3.43;;
5939;SDS011;2995;-31.998;115.906;2023-08-06T10:56:46;6.23;;;3.37;;
5939;SDS011;2995;-31.998;115.906;2023-08-06T10:59:17;3.63;;;3.23;;
5939;SDS011;2995;-31.998;115.906;2023-08-06T11:01:51;10.00;;;4.30;;
5939;SDS011;2995;-31.998;115.906;2023-08-06T11:04:23;5.77;;;4.20;;
5939;SDS011;2995;-31.998;115.906;2023-08-06T11:06:54;5.60;;;4.00;;
5939;SDS011;2995;-31.998;115.906;2023-08-06T11:09:25;7.63;;;4.17;;
5939;SDS011;2995;-31.998;115.906;2023-08-06T11:11:57;7.90;;;4.60;;
5939;SDS011;2995;-31.998;115.906;2023-08-06T11:14:30;8.47;;;4.23;;
5939;SDS011;2995;-31.998;115.906;2023-08-06T11:17:03;7.27;;;4.83;;
5939;SDS011;2995;-31.998;115.906;2023-08-06T11:19:35;5.70;;;4.43;;
5939;SDS011;2995;-31.998;115.906;2023-08-06T11:22:06;7.10;;;5.40;;
5939;SDS011;2995;-31.998;115.906;2023-08-06T11:24:38;7.80;;;5.60;;
5939;SDS011;2995;-31.998;115.906;2023-08-06T11:27:12;8.33;;;5.00;;
5939;SDS011;2995;-31.998;115.906;2023-08-06T11:29:44;8.60;;;5.40;;
5939;SDS011;2995;-31.998;115.906;2023-08-06T11:32:17;9.37;;;5.17;;
5939;SDS011;2995;-31.998;115.906;2023-08-06T11:34:48;8.47;;;5.33;;
5939;SDS011;2995;-31.998;115.906;2023-08-06T11:37:21;9.93;;;5.47;;
5939;SDS011;2995;-31.998;115.906;2023-08-06T11:39:53;10.47;;;6.40;;
5939;SDS011;2995;-31.998;115.906;2023-08-06T11:42:26;12.53;;;6.80;;
5939;SDS011;2995;-31.998;115.906;2023-08-06T11:45:02;8.97;;;6.97;;
5939;SDS011;2995;-31.998;115.906;2023-08-06T11:47:40;10.80;;;6.17;;
5939;SDS011;2995;-31.998;115.906;2023-08-06T11:50:27;12.83;;;7.73;;
5939;SDS011;2995;-31.998;115.906;2023-08-06T11:53:00;10.13;;;6.40;;
5939;SDS011;2995;-31.998;115.906;2023-08-06T11:55:31;8.13;;;6.00;;
5939;SDS011;2995;-31.998;115.906;2023-08-06T11:58:03;10.93;;;5.90;;
5939;SDS011;2995;-31.998;115.906;2023-08-06T12:00:34;8.40;;;6.30;;
5939;SDS011;2995;-31.998;115.906;2023-08-06T12:03:09;8.00;;;5.70;;
5939;SDS011;2995;-31.998;115.906;2023-08-06T12:05:40;9.30;;;5.77;;
5939;SDS011;2995;-31.998;115.906;2023-08-06T12:08:14;8.57;;;6.20;;
5939;SDS011;2995;-31.998;115.906;2023-08-06T12:10:45;11.23;;;5.60;;
5939;SDS011;2995;-31.998;115.906;2023-08-06T12:13:17;9.47;;;5.83;;
5939;SDS011;2995;-31.998;115.906;2023-08-06T12:15:48;8.23;;;5.67;;
5939;SDS011;2995;-31.998;115.906;2023-08-06T12:18:22;9.20;;;5.90;;
5939;SDS011;2995;-31.998;115.906;2023-08-06T12:20:53;12.30;;;5.77;;
5939;SDS011;2995;-31.998;115.906;2023-08-06T12:23:25;9.50;;;6.30;;
5939;SDS011;2995;-31.998;115.906;2023-08-06T12:25:58;8.40;;;6.23;;
5939;SDS011;2995;-31.998;115.906;2023-08-06T12:28:29;6.40;;;5.57;;
5939;SDS011;2995;-31.998;115.906;2023-08-06T12:31:00;7.60;;;5.77;;
5939;SDS011;2995;-31.998;115.906;2023-08-06T12:33:33;8.70;;;5.90;;
5939;SDS011;2995;-31.998;115.906;2023-08-06T12:36:05;9.30;;;5.70;;
5939;SDS011;2995;-31.998;115.906;2023-08-06T12:38:36;7.40;;;5.40;;
5939;SDS011;2995;-31.998;115.906;2023-08-06T12:41:07;8.13;;;5.80;;
5939;SDS011;2995;-31.998;115.906;2023-08-06T12:43:38;9.50;;;5.80;;
5939;SDS011;2995;-31.998;115.906;2023-08-06T12:46:09;5.53;;;4.57;;
5939;SDS011;2995;-31.998;115.906;2023-08-06T12:48:43;7.53;;;5.40;;
5939;SDS011;2995;-31.998;115.906;2023-08-06T12:51:14;8.10;;;5.70;;
5939;SDS011;2995;-31.998;115.906;2023-08-06T12:53:46;8.10;;;5.57;;
5939;SDS011;2995;-31.998;115.906;2023-08-06T12:56:17;9.30;;;6.00;;
5939;SDS011;2995;-31.998;115.906;2023-08-06T12:58:48;7.07;;;6.13;;
5939;SDS011;2995;-31.998;115.906;2023-08-06T13:01:19;8.90;;;6.40;;
5939;SDS011;2995;-31.998;115.906;2023-08-06T13:03:52;6.17;;;5.67;;
5939;SDS011;2995;-31.998;115.906;2023-08-06T13:06:24;6.83;;;6.13;;
5939;SDS011;2995;-31.998;115.906;2023-08-06T13:08:55;6.83;;;6.20;;
5939;SDS011;2995;-31.998;115.906;2023-08-06T13:11:26;10.20;;;6.47;;
5939;SDS011;2995;-31.998;115.906;2023-08-06T13:14:00;8.50;;;6.47;;
5939;SDS011;2995;-31.998;115.906;2023-08-06T13:16:35;12.40;;;7.40;;
5939;SDS011;2995;-31.998;115.906;2023-08-06T13:19:09;10.63;;;7.80;;
5939;SDS011;2995;-31.998;115.906;2023-08-06T13:24:32;12.77;;;9.40;;
5939;SDS011;2995;-31.998;115.906;2023-08-06T13:27:03;13.37;;;9.30;;
5939;SDS011;2995;-31.998;115.906;2023-08-06T13:29:36;15.33;;;9.40;;
5939;SDS011;2995;-31.998;115.906;2023-08-06T13:32:07;11.77;;;7.60;;
5939;SDS011;2995;-31.998;115.906;2023-08-06T13:34:40;10.27;;;7.57;;
5939;SDS011;2995;-31.998;115.906;2023-08-06T13:37:11;12.20;;;8.40;;
5939;SDS011;2995;-31.998;115.906;2023-08-06T13:39:42;10.03;;;7.50;;
5939;SDS011;2995;-31.998;115.906;2023-08-06T13:42:13;11.80;;;8.13;;
5939;SDS011;2995;-31.998;115.906;2023-08-06T13:44:45;12.47;;;8.10;;
5939;SDS011;2995;-31.998;115.906;2023-08-06T13:47:16;11.10;;;7.40;;
5939;SDS011;2995;-31.998;115.906;2023-08-06T13:49:49;11.90;;;7.30;;
5939;SDS011;2995;-31.998;115.906;2023-08-06T13:52:21;11.43;;;8.03;;
5939;SDS011;2995;-31.998;115.906;2023-08-06T13:54:52;17.90;;;8.63;;
5939;SDS011;2995;-31.998;115.906;2023-08-06T13:57:23;17.07;;;9.30;;
5939;SDS011;2995;-31.998;115.906;2023-08-06T13:59:54;12.40;;;7.63;;
5939;SDS011;2995;-31.998;115.906;2023-08-06T14:02:26;14.90;;;8.30;;
5939;SDS011;2995;-31.998;115.906;2023-08-06T14:04:59;16.57;;;9.10;;
5939;SDS011;2995;-31.998;115.906;2023-08-06T14:07:30;14.50;;;9.23;;
5939;SDS011;2995;-31.998;115.906;2023-08-06T14:10:02;19.47;;;9.83;;
5939;SDS011;2995;-31.998;115.906;2023-08-06T14:12:33;17.47;;;9.27;;
5939;SDS011;2995;-31.998;115.906;2023-08-06T14:15:05;18.40;;;9.87;;
5939;SDS011;2995;-31.998;115.906;2023-08-06T14:17:36;15.37;;;9.97;;
5939;SDS011;2995;-31.998;115.906;2023-08-06T14:20:10;18.57;;;11.10;;
5939;SDS011;2995;-31.998;115.906;2023-08-06T14:22:41;16.70;;;9.80;;
5939;SDS011;2995;-31.998;115.906;2023-08-06T14:25:12;19.23;;;10.30;;
5939;SDS011;2995;-31.998;115.906;2023-08-06T14:27:43;15.90;;;9.43;;
5939;SDS011;2995;-31.998;115.906;2023-08-06T14:30:15;16.10;;;9.43;;
5939;SDS011;2995;-31.998;115.906;2023-08-06T14:32:46;22.07;;;13.20;;
5939;SDS011;2995;-31.998;115.906;2023-08-06T14:35:19;21.57;;;14.07;;
5939;SDS011;2995;-31.998;115.906;2023-08-06T14:37:51;14.20;;;10.30;;
5939;SDS011;2995;-31.998;115.906;2023-08-06T14:40:22;23.70;;;13.07;;
5939;SDS011;2995;-31.998;115.906;2023-08-06T14:42:59;13.40;;;10.47;;
5939;SDS011;2995;-31.998;115.906;2023-08-06T14:45:31;15.37;;;10.50;;
5939;SDS011;2995;-31.998;115.906;2023-08-06T14:48:02;13.20;;;8.63;;
5939;SDS011;2995;-31.998;115.906;2023-08-06T14:50:35;12.93;;;8.60;;
5939;SDS011;2995;-31.998;115.906;2023-08-06T14:53:07;14.13;;;9.00;;
5939;SDS011;2995;-31.998;115.906;2023-08-06T14:55:39;13.80;;;9.90;;
5939;SDS011;2995;-31.998;115.906;2023-08-06T14:58:10;16.10;;;9.90;;
5939;SDS011;2995;-31.998;115.906;2023-08-06T15:00:41;11.63;;;8.53;;
5939;SDS011;2995;-31.998;115.906;2023-08-06T15:03:13;10.67;;;7.87;;
5939;SDS011;2995;-31.998;115.906;2023-08-06T15:05:48;9.30;;;6.40;;